sensor_id;sensor_type;location;lat;lon;timestamp;pressure;altitude;pressure_sealevel;temperature;humidity
51297;BME280;37380;45.186;9.792;2023-02-21T00:01:00;101811.19;;;4.93;100.00
51297;BME280;37380;45.186;9.792;2023-02-21T00:03:45;101828.78;;;5.09;100.00
51297;BME280;37380;45.186;9.792;2023-02-21T00:06:37;101822.19;;;4.79;100.00
51297;BME280;37380;45.186;9.792;2023-02-21T00:09:49;101810.66;;;4.52;100.00
51297;BME280;37380;45.186;9.792;2023-02-21T00:12:35;101873.31;;;4.82;100.00
51297;BME280;37380;45.186;9.792;2023-02-21T00:15:21;101834.53;;;4.60;100.00
51297;BME280;37380;45.186;9.792;2023-02-21T00:18:13;101837.31;;;4.51;100.00
51297;BME280;37380;45.186;9.792;2023-02-21T00:21:32;101830.25;;;4.60;100.00
51297;BME280;37380;45.186;9.792;2023-02-21T00:24:44;101868.19;;;4.60;100.00
51297;BME280;37380;45.186;9.792;2023-02-21T00:27:30;101873.38;;;4.60;100.00
51297;BME280;37380;45.186;9.792;2023-02-21T00:30:15;101869.00;;;4.70;100.00
51297;BME280;37380;45.186;9.792;2023-02-21T00:33:01;101791.81;;;4.09;100.00
51297;BME280;37380;45.186;9.792;2023-02-21T00:35:47;101806.66;;;4.12;100.00
51297;BME280;37380;45.186;9.792;2023-02-21T00:38:39;101833.84;;;4.28;100.00
51297;BME280;37380;45.186;9.792;2023-02-21T00:41:52;101858.59;;;4.59;100.00
51297;BME280;37380;45.186;9.792;2023-02-21T00:44:38;101809.91;;;4.09;100.00
51297;BME280;37380;45.186;9.792;2023-02-21T00:47:23;101834.47;;;4.14;100.00
51297;BME280;37380;45.186;9.792;2023-02-21T00:50:09;101827.13;;;4.08;100.00
51297;BME280;37380;45.186;9.792;2023-02-21T00:53:15;101826.81;;;4.16;100.00
51297;BME280;37380;45.186;9.792;2023-02-21T00:56:34;101851.00;;;4.16;100.00
51297;BME280;37380;45.186;9.792;2023-02-21T00:59:30;101855.75;;;4.22;100.00
51297;BME280;37380;45.186;9.792;2023-02-21T01:02:16;101809.06;;;3.76;100.00
51297;BME280;37380;45.186;9.792;2023-02-21T01:05:02;101826.41;;;3.99;100.00
51297;BME280;37380;45.186;9.792;2023-02-21T01:07:48;101849.50;;;4.08;100.00
51297;BME280;37380;45.186;9.792;2023-02-21T01:10:34;101648.16;;;2.81;100.00
51297;BME280;37380;45.186;9.792;2023-02-21T01:13:20;101765.25;;;3.46;100.00
51297;BME280;37380;45.186;9.792;2023-02-21T01:16:06;101841.66;;;3.96;100.00
51297;BME280;37380;45.186;9.792;2023-02-21T01:18:59;101734.31;;;3.35;100.00
51297;BME280;37380;45.186;9.792;2023-02-21T01:22:11;101830.78;;;3.78;100.00
51297;BME280;37380;45.186;9.792;2023-02-21T01:24:57;101810.69;;;3.54;100.00
51297;BME280;37380;45.186;9.792;2023-02-21T01:27:42;101837.53;;;3.66;100.00
51297;BME280;37380;45.186;9.792;2023-02-21T01:30:28;101759.81;;;3.53;100.00
51297;BME280;37380;45.186;9.792;2023-02-21T01:33:41;101756.44;;;3.54;100.00
51297;BME280;37380;45.186;9.792;2023-02-21T01:36:31;101786.13;;;3.59;100.00
51297;BME280;37380;45.186;9.792;2023-02-21T01:39:27;101800.28;;;3.74;100.00
51297;BME280;37380;45.186;9.792;2023-02-21T01:42:39;101774.06;;;3.70;100.00
51297;BME280;37380;45.186;9.792;2023-02-21T01:45:47;101822.13;;;4.00;100.00
51297;BME280;37380;45.186;9.792;2023-02-21T01:48:34;101769.50;;;3.77;100.00
51297;BME280;37380;45.186;9.792;2023-02-21T01:51:33;101804.56;;;3.96;100.00
51297;BME280;37380;45.186;9.792;2023-02-21T01:54:54;101737.31;;;3.52;100.00
51297;BME280;37380;45.186;9.792;2023-02-21T01:58:07;101819.59;;;4.12;100.00
51297;BME280;37380;45.186;9.792;2023-02-21T02:00:55;101746.66;;;3.72;100.00
51297;BME280;37380;45.186;9.792;2023-02-21T02:03:42;101787.19;;;3.61;100.00
51297;BME280;37380;45.186;9.792;2023-02-21T02:06:28;101829.75;;;3.76;100.00
51297;BME280;37380;45.186;9.792;2023-02-21T02:09:21;101806.50;;;3.66;100.00
51297;BME280;37380;45.186;9.792;2023-02-21T02:15:45;101679.88;;;2.90;100.00
51297;BME280;37380;45.186;9.792;2023-02-21T02:32:44;101796.63;;;3.50;100.00
51297;BME280;37380;45.186;9.792;2023-02-21T02:38:12;101797.75;;;3.22;100.00
51297;BME280;37380;45.186;9.792;2023-02-21T02:43:27;101800.41;;;3.44;100.00
51297;BME280;37380;45.186;9.792;2023-02-21T02:46:14;101803.81;;;3.22;100.00
51297;BME280;37380;45.186;9.792;2023-02-21T02:48:55;101740.91;;;3.00;100.00
51297;BME280;37380;45.186;9.792;2023-02-21T02:52:05;101713.81;;;2.94;100.00
51297;BME280;37380;45.186;9.792;2023-02-21T02:55:23;101783.72;;;3.50;100.00
51297;BME280;37380;45.186;9.792;2023-02-21T02:57:52;101784.66;;;3.73;100.00
51297;BME280;37380;45.186;9.792;2023-02-21T03:00:20;101787.09;;;3.71;100.00
51297;BME280;37380;45.186;9.792;2023-02-21T03:11:04;101781.78;;;3.48;100.00
51297;BME280;37380;45.186;9.792;2023-02-21T03:13:48;101779.66;;;3.32;100.00
51297;BME280;37380;45.186;9.792;2023-02-21T03:19:03;101775.72;;;3.69;100.00
51297;BME280;37380;45.186;9.792;2023-02-21T03:22:09;101783.72;;;3.72;100.00
51297;BME280;37380;45.186;9.792;2023-02-21T03:25:07;101776.28;;;3.65;100.00
51297;BME280;37380;45.186;9.792;2023-02-21T03:27:37;101778.41;;;3.49;100.00
51297;BME280;37380;45.186;9.792;2023-02-21T03:30:25;101758.59;;;3.37;100.00
51297;BME280;37380;45.186;9.792;2023-02-21T03:32:59;101777.00;;;3.74;100.00
51297;BME280;37380;45.186;9.792;2023-02-21T03:36:03;101781.75;;;3.80;100.00
51297;BME280;37380;45.186;9.792;2023-02-21T03:38:59;101740.94;;;3.54;100.00
51297;BME280;37380;45.186;9.792;2023-02-21T03:41:26;101786.03;;;3.79;100.00
51297;BME280;37380;45.186;9.792;2023-02-21T03:43:54;101531.31;;;2.39;100.00
51297;BME280;37380;45.186;9.792;2023-02-21T03:46:21;101720.50;;;3.57;100.00
51297;BME280;37380;45.186;9.792;2023-02-21T03:48:54;101693.47;;;3.42;100.00
51297;BME280;37380;45.186;9.792;2023-02-21T03:51:55;101671.25;;;3.44;100.00
51297;BME280;37380;45.186;9.792;2023-02-21T03:54:42;101719.91;;;3.71;100.00
51297;BME280;37380;45.186;9.792;2023-02-21T03:57:14;101703.72;;;3.52;100.00
51297;BME280;37380;45.186;9.792;2023-02-21T03:59:44;101773.84;;;3.67;100.00
51297;BME280;37380;45.186;9.792;2023-02-21T04:02:12;101776.34;;;3.77;100.00
51297;BME280;37380;45.186;9.792;2023-02-21T04:04:40;101712.59;;;3.44;100.00
51297;BME280;37380;45.186;9.792;2023-02-21T04:07:11;101766.19;;;3.68;100.00
51297;BME280;37380;45.186;9.792;2023-02-21T04:09:38;101772.44;;;3.60;100.00
51297;BME280;37380;45.186;9.792;2023-02-21T04:12:07;101779.91;;;3.67;100.00
51297;BME280;37380;45.186;9.792;2023-02-21T04:14:36;101780.97;;;3.59;100.00
51297;BME280;37380;45.186;9.792;2023-02-21T04:17:09;101689.13;;;3.30;100.00
51297;BME280;37380;45.186;9.792;2023-02-21T04:20:13;101766.44;;;3.71;100.00
51297;BME280;37380;45.186;9.792;2023-02-21T04:23:19;101727.66;;;3.49;100.00
51297;BME280;37380;45.186;9.792;2023-02-21T04:25:52;101640.22;;;3.00;100.00
51297;BME280;37380;45.186;9.792;2023-02-21T04:28:28;101716.41;;;3.49;100.00
51297;BME280;37380;45.186;9.792;2023-02-21T04:30:56;101720.25;;;3.54;100.00
51297;BME280;37380;45.186;9.792;2023-02-21T04:33:23;101748.88;;;3.67;100.00
51297;BME280;37380;45.186;9.792;2023-02-21T04:35:50;101732.38;;;3.55;100.00
51297;BME280;37380;45.186;9.792;2023-02-21T04:38:31;101614.88;;;3.06;100.00
51297;BME280;37380;45.186;9.792;2023-02-21T04:40:58;101564.53;;;2.57;100.00
51297;BME280;37380;45.186;9.792;2023-02-21T04:43:25;101734.38;;;3.47;100.00
51297;BME280;37380;45.186;9.792;2023-02-21T04:45:52;101763.31;;;3.75;100.00
51297;BME280;37380;45.186;9.792;2023-02-21T04:48:22;101757.97;;;3.84;100.00
51297;BME280;37380;45.186;9.792;2023-02-21T04:50:56;101766.00;;;3.77;100.00
51297;BME280;37380;45.186;9.792;2023-02-21T04:54:01;101644.66;;;3.34;100.00
51297;BME280;37380;45.186;9.792;2023-02-21T04:56:48;101705.00;;;3.57;100.00
51297;BME280;37380;45.186;9.792;2023-02-21T04:59:16;101699.34;;;3.51;100.00
51297;BME280;37380;45.186;9.792;2023-02-21T05:01:43;101633.84;;;3.28;100.00
51297;BME280;37380;45.186;9.792;2023-02-21T05:04:10;101700.38;;;3.53;100.00
51297;BME280;37380;45.186;9.792;2023-02-21T05:06:36;101587.47;;;3.08;100.00
51297;BME280;37380;45.186;9.792;2023-02-21T05:09:04;101676.88;;;3.50;100.00
51297;BME280;37380;45.186;9.792;2023-02-21T05:11:33;101739.78;;;3.94;100.00
51297;BME280;37380;45.186;9.792;2023-02-21T05:14:02;101738.94;;;3.83;100.00
51297;BME280;37380;45.186;9.792;2023-02-21T05:16:29;101701.66;;;3.58;100.00
51297;BME280;37380;45.186;9.792;2023-02-21T05:19:03;101694.97;;;3.50;100.00
51297;BME280;37380;45.186;9.792;2023-02-21T05:21:59;101741.31;;;3.80;100.00
51297;BME280;37380;45.186;9.792;2023-02-21T05:24:29;101722.31;;;3.58;100.00
51297;BME280;37380;45.186;9.792;2023-02-21T05:27:02;101728.91;;;3.54;100.00
51297;BME280;37380;45.186;9.792;2023-02-21T05:30:04;101700.38;;;3.53;100.00
51297;BME280;37380;45.186;9.792;2023-02-21T05:33:05;101582.50;;;2.77;100.00
51297;BME280;37380;45.186;9.792;2023-02-21T05:35:53;101736.31;;;3.50;100.00
51297;BME280;37380;45.186;9.792;2023-02-21T05:38:22;101663.63;;;3.13;100.00
51297;BME280;37380;45.186;9.792;2023-02-21T05:40:50;101699.78;;;3.13;100.00
51297;BME280;37380;45.186;9.792;2023-02-21T05:43:18;101715.84;;;3.31;100.00
51297;BME280;37380;45.186;9.792;2023-02-21T05:45:51;101738.19;;;3.40;100.00
51297;BME280;37380;45.186;9.792;2023-02-21T05:48:46;101706.94;;;3.37;100.00
51297;BME280;37380;45.186;9.792;2023-02-21T05:51:19;101673.47;;;3.07;100.00
51297;BME280;37380;45.186;9.792;2023-02-21T05:54:16;101732.78;;;3.59;100.00
51297;BME280;37380;45.186;9.792;2023-02-21T05:56:45;101575.81;;;2.69;100.00
51297;BME280;37380;45.186;9.792;2023-02-21T05:59:19;101735.34;;;3.59;100.00
51297;BME280;37380;45.186;9.792;2023-02-21T06:02:14;101688.41;;;3.21;100.00
51297;BME280;37380;45.186;9.792;2023-02-21T06:04:41;101743.72;;;3.67;100.00
51297;BME280;37380;45.186;9.792;2023-02-21T06:07:14;101665.03;;;3.20;100.00
51297;BME280;37380;45.186;9.792;2023-02-21T06:10:09;101688.53;;;3.45;100.00
51297;BME280;37380;45.186;9.792;2023-02-21T06:12:36;101673.63;;;3.30;100.00
51297;BME280;37380;45.186;9.792;2023-02-21T06:15:03;101762.81;;;3.69;100.00
51297;BME280;37380;45.186;9.792;2023-02-21T06:17:40;101536.25;;;2.26;100.00
51297;BME280;37380;45.186;9.792;2023-02-21T06:20:42;101745.31;;;3.55;100.00
51297;BME280;37380;45.186;9.792;2023-02-21T06:23:44;101741.34;;;3.48;100.00
51297;BME280;37380;45.186;9.792;2023-02-21T06:26:39;101744.81;;;3.49;100.00
51297;BME280;37380;45.186;9.792;2023-02-21T06:29:10;101606.69;;;2.89;100.00
51297;BME280;37380;45.186;9.792;2023-02-21T06:31:39;101696.66;;;3.49;100.00
51297;BME280;37380;45.186;9.792;2023-02-21T06:34:06;101713.13;;;3.61;100.00
51297;BME280;37380;45.186;9.792;2023-02-21T06:36:33;101738.22;;;3.74;100.00
51297;BME280;37380;45.186;9.792;2023-02-21T06:39:01;101687.38;;;3.63;100.00
51297;BME280;37380;45.186;9.792;2023-02-21T06:41:29;101708.53;;;3.91;100.00
51297;BME280;37380;45.186;9.792;2023-02-21T06:43:57;101712.81;;;3.91;100.00
51297;BME280;37380;45.186;9.792;2023-02-21T06:46:27;101745.91;;;4.06;100.00
51297;BME280;37380;45.186;9.792;2023-02-21T06:48:54;101696.81;;;3.84;100.00
51297;BME280;37380;45.186;9.792;2023-02-21T06:51:40;101750.28;;;4.29;100.00
51297;BME280;37380;45.186;9.792;2023-02-21T06:54:40;101758.34;;;4.22;100.00
51297;BME280;37380;45.186;9.792;2023-02-21T06:57:34;101730.00;;;3.90;100.00
51297;BME280;37380;45.186;9.792;2023-02-21T07:00:03;101741.22;;;4.13;100.00
51297;BME280;37380;45.186;9.792;2023-02-21T07:02:30;101752.88;;;4.41;100.00
51297;BME280;37380;45.186;9.792;2023-02-21T07:04:57;101766.19;;;4.46;100.00
51297;BME280;37380;45.186;9.792;2023-02-21T07:07:24;101770.50;;;4.57;100.00
51297;BME280;37380;45.186;9.792;2023-02-21T07:09:51;101735.28;;;4.71;100.00
51297;BME280;37380;45.186;9.792;2023-02-21T07:12:18;101759.16;;;4.90;100.00
51297;BME280;37380;45.186;9.792;2023-02-21T07:14:45;101712.75;;;4.58;100.00
51297;BME280;37380;45.186;9.792;2023-02-21T07:17:19;101742.06;;;5.04;100.00
51297;BME280;37380;45.186;9.792;2023-02-21T07:20:12;101730.91;;;4.93;100.00
51297;BME280;37380;45.186;9.792;2023-02-21T07:22:39;101724.22;;;5.20;100.00
51297;BME280;37380;45.186;9.792;2023-02-21T07:25:06;101766.41;;;5.66;100.00
51297;BME280;37380;45.186;9.792;2023-02-21T07:27:40;101743.13;;;5.43;100.00
51297;BME280;37380;45.186;9.792;2023-02-21T07:30:41;101733.81;;;5.33;100.00
51297;BME280;37380;45.186;9.792;2023-02-21T07:33:35;101702.03;;;5.36;100.00
51297;BME280;37380;45.186;9.792;2023-02-21T07:36:03;101647.69;;;5.01;100.00
51297;BME280;37380;45.186;9.792;2023-02-21T07:38:30;101744.88;;;5.79;100.00
51297;BME280;37380;45.186;9.792;2023-02-21T07:41:00;101625.41;;;4.79;100.00
51297;BME280;37380;45.186;9.792;2023-02-21T07:43:28;101750.38;;;5.35;100.00
51297;BME280;37380;45.186;9.792;2023-02-21T07:45:56;101646.06;;;5.14;100.00
51297;BME280;37380;45.186;9.792;2023-02-21T07:48:24;101785.84;;;6.08;100.00
51297;BME280;37380;45.186;9.792;2023-02-21T07:50:57;101673.69;;;5.62;100.00
51297;BME280;37380;45.186;9.792;2023-02-21T07:53:58;101767.19;;;6.39;100.00
51297;BME280;37380;45.186;9.792;2023-02-21T07:56:59;101682.44;;;6.01;100.00
51297;BME280;37380;45.186;9.792;2023-02-21T08:00:00;101764.81;;;6.42;100.00
51297;BME280;37380;45.186;9.792;2023-02-21T08:02:55;101764.25;;;6.46;100.00
51297;BME280;37380;45.186;9.792;2023-02-21T08:05:22;101750.56;;;6.49;100.00
51297;BME280;37380;45.186;9.792;2023-02-21T08:07:55;101744.84;;;6.41;100.00
51297;BME280;37380;45.186;9.792;2023-02-21T08:10:50;101736.09;;;6.66;100.00
51297;BME280;37380;45.186;9.792;2023-02-21T08:13:17;101730.91;;;6.66;100.00
51297;BME280;37380;45.186;9.792;2023-02-21T08:15:44;101699.84;;;6.16;100.00
51297;BME280;37380;45.186;9.792;2023-02-21T08:18:20;101764.59;;;6.77;100.00
51297;BME280;37380;45.186;9.792;2023-02-21T08:21:15;101775.03;;;7.04;100.00
51297;BME280;37380;45.186;9.792;2023-02-21T08:23:52;101752.66;;;6.93;100.00
51297;BME280;37380;45.186;9.792;2023-02-21T08:27:12;101724.34;;;6.97;100.00
51297;BME280;37380;45.186;9.792;2023-02-21T08:29:39;101745.13;;;7.24;100.00
51297;BME280;37380;45.186;9.792;2023-02-21T08:32:06;101715.56;;;7.22;100.00
51297;BME280;37380;45.186;9.792;2023-02-21T08:34:33;101768.38;;;7.76;100.00
51297;BME280;37380;45.186;9.792;2023-02-21T08:37:01;101711.00;;;7.46;100.00
51297;BME280;37380;45.186;9.792;2023-02-21T08:39:32;101601.38;;;6.57;100.00
51297;BME280;37380;45.186;9.792;2023-02-21T08:41:59;101747.50;;;7.61;100.00
51297;BME280;37380;45.186;9.792;2023-02-21T08:44:26;101721.00;;;7.81;100.00
51297;BME280;37380;45.186;9.792;2023-02-21T08:46:53;101601.25;;;6.95;100.00
51297;BME280;37380;45.186;9.792;2023-02-21T08:49:20;101572.22;;;7.16;100.00
51297;BME280;37380;45.186;9.792;2023-02-21T08:51:55;101630.63;;;7.36;100.00
51297;BME280;37380;45.186;9.792;2023-02-21T08:54:55;101755.75;;;8.10;100.00
51297;BME280;37380;45.186;9.792;2023-02-21T08:57:52;101764.94;;;8.18;100.00
51297;BME280;37380;45.186;9.792;2023-02-21T09:00:22;101650.50;;;7.77;100.00
51297;BME280;37380;45.186;9.792;2023-02-21T09:02:51;101761.19;;;8.71;100.00
51297;BME280;37380;45.186;9.792;2023-02-21T09:05:24;101763.59;;;7.68;100.00
51297;BME280;37380;45.186;9.792;2023-02-21T09:07:54;101764.22;;;7.11;100.00
51297;BME280;37380;45.186;9.792;2023-02-21T09:10:30;101766.94;;;6.99;100.00
51297;BME280;37380;45.186;9.792;2023-02-21T09:13:05;101759.09;;;7.66;100.00
51297;BME280;37380;45.186;9.792;2023-02-21T09:16:06;101749.69;;;7.68;100.00
51297;BME280;37380;45.186;9.792;2023-02-21T09:19:08;101707.53;;;8.02;100.00
51297;BME280;37380;45.186;9.792;2023-02-21T09:22:02;101718.06;;;8.61;100.00
51297;BME280;37380;45.186;9.792;2023-02-21T09:24:32;101696.69;;;8.81;100.00
51297;BME280;37380;45.186;9.792;2023-02-21T09:26:59;101521.75;;;8.00;100.00
51297;BME280;37380;45.186;9.792;2023-02-21T09:29:31;101753.63;;;9.67;100.00
51297;BME280;37380;45.186;9.792;2023-02-21T09:32:10;101708.47;;;9.85;100.00
51297;BME280;37380;45.186;9.792;2023-02-21T09:34:38;101751.25;;;9.56;100.00
51297;BME280;37380;45.186;9.792;2023-02-21T09:37:06;101628.91;;;9.13;100.00
51297;BME280;37380;45.186;9.792;2023-02-21T09:39:36;101748.78;;;8.96;100.00
51297;BME280;37380;45.186;9.792;2023-02-21T09:42:04;101639.25;;;8.21;100.00
51297;BME280;37380;45.186;9.792;2023-02-21T09:44:31;101700.19;;;8.52;100.00
51297;BME280;37380;45.186;9.792;2023-02-21T09:47:05;101732.16;;;8.50;100.00
51297;BME280;37380;45.186;9.792;2023-02-21T09:49:38;101749.75;;;8.39;100.00
51297;BME280;37380;45.186;9.792;2023-02-21T09:52:26;101699.34;;;9.29;100.00
51297;BME280;37380;45.186;9.792;2023-02-21T09:55:27;101749.75;;;9.75;100.00
51297;BME280;37380;45.186;9.792;2023-02-21T09:57:56;101752.06;;;10.18;100.00
51297;BME280;37380;45.186;9.792;2023-02-21T10:00:37;101754.16;;;10.58;100.00
51297;BME280;37380;45.186;9.792;2023-02-21T10:03:37;101748.72;;;10.88;100.00
51297;BME280;37380;45.186;9.792;2023-02-21T10:09:01;101743.91;;;11.33;100.00
51297;BME280;37380;45.186;9.792;2023-02-21T10:19:13;101741.03;;;12.81;100.00
51297;BME280;37380;45.186;9.792;2023-02-21T10:22:18;101727.22;;;12.44;100.00
51297;BME280;37380;45.186;9.792;2023-02-21T10:24:47;101627.47;;;11.61;100.00
51297;BME280;37380;45.186;9.792;2023-02-21T10:27:19;101688.19;;;11.91;100.00
51297;BME280;37380;45.186;9.792;2023-02-21T10:32:23;101725.22;;;11.81;100.00
51297;BME280;37380;45.186;9.792;2023-02-21T10:34:51;101711.19;;;11.98;100.00
51297;BME280;37380;45.186;9.792;2023-02-21T10:40:00;101716.94;;;12.49;100.00
51297;BME280;37380;45.186;9.792;2023-02-21T10:42:36;101680.88;;;12.03;100.00
51297;BME280;37380;45.186;9.792;2023-02-21T10:45:15;101655.13;;;11.75;100.00
51297;BME280;37380;45.186;9.792;2023-02-21T10:48:11;101438.53;;;9.11;100.00
51297;BME280;37380;45.186;9.792;2023-02-21T10:50:51;101690.59;;;9.60;100.00
51297;BME280;37380;45.186;9.792;2023-02-21T10:56:22;101718.03;;;9.84;100.00
51297;BME280;37380;45.186;9.792;2023-02-21T10:59:27;101417.72;;;9.13;100.00
51297;BME280;37380;45.186;9.792;2023-02-21T11:02:39;101713.38;;;10.11;100.00
51297;BME280;37380;45.186;9.792;2023-02-21T11:05:37;101697.94;;;10.32;100.00
51297;BME280;37380;45.186;9.792;2023-02-21T11:08:11;101429.78;;;8.45;100.00
51297;BME280;37380;45.186;9.792;2023-02-21T11:10:56;101696.16;;;10.31;100.00
51297;BME280;37380;45.186;9.792;2023-02-21T11:14:24;101515.97;;;9.30;100.00
51297;BME280;37380;45.186;9.792;2023-02-21T11:20:19;101636.34;;;10.54;100.00
51297;BME280;37380;45.186;9.792;2023-02-21T11:23:27;101452.00;;;9.37;100.00
51297;BME280;37380;45.186;9.792;2023-02-21T11:28:27;101395.75;;;9.42;100.00
51297;BME280;37380;45.186;9.792;2023-02-21T11:33:31;101388.59;;;9.38;100.00
51297;BME280;37380;45.186;9.792;2023-02-21T11:36:15;101562.19;;;10.70;100.00
51297;BME280;37380;45.186;9.792;2023-02-21T11:38:58;101649.03;;;11.37;100.00
51297;BME280;37380;45.186;9.792;2023-02-21T11:41:35;101419.66;;;10.58;100.00
51297;BME280;37380;45.186;9.792;2023-02-21T11:52:39;101621.09;;;12.14;100.00
51297;BME280;37380;45.186;9.792;2023-02-21T11:55:18;101579.94;;;11.90;100.00
51297;BME280;37380;45.186;9.792;2023-02-21T12:01:27;101520.16;;;12.22;100.00
51297;BME280;37380;45.186;9.792;2023-02-21T12:05:05;101610.63;;;13.44;100.00
51297;BME280;37380;45.186;9.792;2023-02-21T12:08:11;101600.66;;;13.84;100.00
51297;BME280;37380;45.186;9.792;2023-02-21T12:14:25;101590.06;;;13.80;100.00
51297;BME280;37380;45.186;9.792;2023-02-21T12:23:55;101582.28;;;13.13;100.00
51297;BME280;37380;45.186;9.792;2023-02-21T12:40:12;101558.25;;;13.02;100.00
51297;BME280;37380;45.186;9.792;2023-02-21T12:42:29;101558.16;;;13.23;100.00
51297;BME280;37380;45.186;9.792;2023-02-21T12:45:27;101270.53;;;11.81;100.00
51297;BME280;37380;45.186;9.792;2023-02-21T12:51:20;101538.44;;;13.57;100.00
51297;BME280;37380;45.186;9.792;2023-02-21T12:54:00;101538.28;;;13.76;100.00
51297;BME280;37380;45.186;9.792;2023-02-21T12:56:53;101513.22;;;13.14;100.00
51297;BME280;37380;45.186;9.792;2023-02-21T13:03:16;101519.19;;;13.82;100.00
51297;BME280;37380;45.186;9.792;2023-02-21T13:05:52;101407.69;;;13.23;100.00
51297;BME280;37380;45.186;9.792;2023-02-21T13:08:32;101472.88;;;13.58;100.00
51297;BME280;37380;45.186;9.792;2023-02-21T13:11:30;101514.09;;;13.87;100.00
51297;BME280;37380;45.186;9.792;2023-02-21T13:13:59;101387.88;;;13.29;100.00
51297;BME280;37380;45.186;9.792;2023-02-21T13:16:31;101384.66;;;13.38;100.00
51297;BME280;37380;45.186;9.792;2023-02-21T13:19:10;101458.88;;;13.85;100.00
51297;BME280;37380;45.186;9.792;2023-02-21T13:30:27;101477.34;;;13.37;100.00
51297;BME280;37380;45.186;9.792;2023-02-21T13:32:56;101361.97;;;12.90;100.00
51297;BME280;37380;45.186;9.792;2023-02-21T13:35:35;101368.69;;;13.08;100.00
51297;BME280;37380;45.186;9.792;2023-02-21T13:38:28;101172.53;;;11.97;100.00
51297;BME280;37380;45.186;9.792;2023-02-21T13:41:33;101466.88;;;13.63;100.00
51297;BME280;37380;45.186;9.792;2023-02-21T13:44:44;101282.31;;;12.88;100.00
51297;BME280;37380;45.186;9.792;2023-02-21T13:50:56;101354.47;;;13.25;100.00
51297;BME280;37380;45.186;9.792;2023-02-21T13:53:29;101191.41;;;12.36;100.00
51297;BME280;37380;45.186;9.792;2023-02-21T13:58:42;101410.72;;;13.85;100.00
51297;BME280;37380;45.186;9.792;2023-02-21T14:01:42;101356.13;;;13.49;100.00
51297;BME280;37380;45.186;9.792;2023-02-21T14:07:47;101451.97;;;14.14;100.00
51297;BME280;37380;45.186;9.792;2023-02-21T14:10:47;101441.06;;;14.31;100.00
51297;BME280;37380;45.186;9.792;2023-02-21T14:13:55;101396.09;;;14.21;100.00
51297;BME280;37380;45.186;9.792;2023-02-21T14:22:34;101381.69;;;13.81;100.00
51297;BME280;37380;45.186;9.792;2023-02-21T14:27:37;101369.13;;;13.71;100.00
51297;BME280;37380;45.186;9.792;2023-02-21T14:32:45;101359.59;;;13.48;100.00
51297;BME280;37380;45.186;9.792;2023-02-21T14:37:43;101427.56;;;13.91;100.00
51297;BME280;37380;45.186;9.792;2023-02-21T14:52:54;101418.63;;;13.59;100.00
51297;BME280;37380;45.186;9.792;2023-02-21T15:02:00;101342.78;;;12.91;100.00
51297;BME280;37380;45.186;9.792;2023-02-21T15:05:26;101413.09;;;13.26;100.00
51297;BME280;37380;45.186;9.792;2023-02-21T15:08:43;101306.84;;;12.65;100.00
51297;BME280;37380;45.186;9.792;2023-02-21T15:11:46;101305.16;;;12.65;100.00
51297;BME280;37380;45.186;9.792;2023-02-21T15:14:23;101275.50;;;12.42;100.00
51297;BME280;37380;45.186;9.792;2023-02-21T15:17:10;101413.19;;;13.05;100.00
51297;BME280;37380;45.186;9.792;2023-02-21T15:20:15;101327.81;;;12.65;100.00
51297;BME280;37380;45.186;9.792;2023-02-21T15:22:43;101126.28;;;11.51;100.00
51297;BME280;37380;45.186;9.792;2023-02-21T15:25:16;101303.09;;;12.57;100.00
51297;BME280;37380;45.186;9.792;2023-02-21T15:30:19;101401.06;;;13.08;100.00
51297;BME280;37380;45.186;9.792;2023-02-21T15:33:00;101397.78;;;12.90;100.00
51297;BME280;37380;45.186;9.792;2023-02-21T15:35:34;101105.03;;;11.19;100.00
51297;BME280;37380;45.186;9.792;2023-02-21T15:38:22;101215.69;;;11.84;100.00
51297;BME280;37380;45.186;9.792;2023-02-21T15:40:54;101092.00;;;10.98;100.00
51297;BME280;37380;45.186;9.792;2023-02-21T15:43:43;101150.91;;;11.56;100.00
51297;BME280;37380;45.186;9.792;2023-02-21T15:46:24;101353.13;;;12.63;100.00
51297;BME280;37380;45.186;9.792;2023-02-21T15:49:40;101405.00;;;12.96;100.00
51297;BME280;37380;45.186;9.792;2023-02-21T15:52:37;101301.22;;;12.30;100.00
51297;BME280;37380;45.186;9.792;2023-02-21T15:57:39;101398.06;;;12.74;100.00
51297;BME280;37380;45.186;9.792;2023-02-21T16:00:38;101359.56;;;12.49;100.00
51297;BME280;37380;45.186;9.792;2023-02-21T16:03:37;101404.50;;;12.59;100.00
51297;BME280;37380;45.186;9.792;2023-02-21T16:06:15;101251.00;;;11.50;100.00
51297;BME280;37380;45.186;9.792;2023-02-21T16:11:45;101407.94;;;12.34;100.00
51297;BME280;37380;45.186;9.792;2023-02-21T16:20:13;101388.59;;;12.08;100.00
51297;BME280;37380;45.186;9.792;2023-02-21T16:22:44;101360.75;;;11.89;100.00
51297;BME280;37380;45.186;9.792;2023-02-21T16:25:33;101334.44;;;11.64;100.00
51297;BME280;37380;45.186;9.792;2023-02-21T16:28:00;101357.16;;;11.65;100.00
51297;BME280;37380;45.186;9.792;2023-02-21T16:30:29;101378.84;;;11.62;100.00
51297;BME280;37380;45.186;9.792;2023-02-21T16:33:04;101412.16;;;11.66;100.00
51297;BME280;37380;45.186;9.792;2023-02-21T16:36:04;101407.13;;;11.50;100.00
51297;BME280;37380;45.186;9.792;2023-02-21T16:38:32;101370.75;;;11.14;100.00
51297;BME280;37380;45.186;9.792;2023-02-21T16:40:59;101370.41;;;10.87;100.00
51297;BME280;37380;45.186;9.792;2023-02-21T16:43:33;101371.91;;;10.82;100.00
51297;BME280;37380;45.186;9.792;2023-02-21T16:46:34;101391.69;;;10.75;100.00
51297;BME280;37380;45.186;9.792;2023-02-21T16:49:28;101386.28;;;10.53;100.00
51297;BME280;37380;45.186;9.792;2023-02-21T16:51:55;101314.41;;;10.04;100.00
51297;BME280;37380;45.186;9.792;2023-02-21T16:54:22;101364.84;;;10.23;100.00